sensor_id;sensor_type;location;lat;lon;timestamp;temperature;humidity
45409;DHT22;31162;51.076;3.784;2023-06-01T00:01:40;14.80;99.90
45409;DHT22;31162;51.076;3.784;2023-06-01T00:04:07;14.80;99.90
45409;DHT22;31162;51.076;3.784;2023-06-01T00:06:33;14.80;99.90
45409;DHT22;31162;51.076;3.784;2023-06-01T00:08:59;14.80;99.90
45409;DHT22;31162;51.076;3.784;2023-06-01T00:11:26;14.90;99.90
45409;DHT22;31162;51.076;3.784;2023-06-01T00:13:52;14.80;99.90
45409;DHT22;31162;51.076;3.784;2023-06-01T00:16:18;14.80;99.90
45409;DHT22;31162;51.076;3.784;2023-06-01T00:18:44;14.70;99.90
45409;DHT22;31162;51.076;3.784;2023-06-01T00:21:10;14.70;99.90
45409;DHT22;31162;51.076;3.784;2023-06-01T00:23:36;14.60;99.90
45409;DHT22;31162;51.076;3.784;2023-06-01T00:26:07;14.60;99.90
45409;DHT22;31162;51.076;3.784;2023-06-01T00:28:33;14.60;99.90
45409;DHT22;31162;51.076;3.784;2023-06-01T00:30:59;14.50;99.90
45409;DHT22;31162;51.076;3.784;2023-06-01T00:33:25;14.60;99.90
45409;DHT22;31162;51.076;3.784;2023-06-01T00:35:53;14.50;99.90
45409;DHT22;31162;51.076;3.784;2023-06-01T00:38:19;14.40;99.90
45409;DHT22;31162;51.076;3.784;2023-06-01T00:40:45;14.40;99.90
45409;DHT22;31162;51.076;3.784;2023-06-01T00:43:11;14.30;99.90
45409;DHT22;31162;51.076;3.784;2023-06-01T00:45:37;14.30;99.90
45409;DHT22;31162;51.076;3.784;2023-06-01T00:48:05;14.20;99.90
45409;DHT22;31162;51.076;3.784;2023-06-01T00:50:32;14.20;99.90
45409;DHT22;31162;51.076;3.784;2023-06-01T00:52:58;14.20;99.90
45409;DHT22;31162;51.076;3.784;2023-06-01T00:55:24;14.10;99.90
45409;DHT22;31162;51.076;3.784;2023-06-01T00:57:52;14.20;99.90
45409;DHT22;31162;51.076;3.784;2023-06-01T01:00:18;14.10;99.90
45409;DHT22;31162;51.076;3.784;2023-06-01T01:02:44;14.20;99.90
45409;DHT22;31162;51.076;3.784;2023-06-01T01:05:10;14.20;99.90
45409;DHT22;31162;51.076;3.784;2023-06-01T01:07:58;14.10;99.90
45409;DHT22;31162;51.076;3.784;2023-06-01T01:10:32;14.00;99.90
45409;DHT22;31162;51.076;3.784;2023-06-01T01:13:19;14.00;99.90
45409;DHT22;31162;51.076;3.784;2023-06-01T01:16:07;14.00;99.90
45409;DHT22;31162;51.076;3.784;2023-06-01T01:21:31;13.80;99.90
45409;DHT22;31162;51.076;3.784;2023-06-01T01:29:46;13.70;99.90
45409;DHT22;31162;51.076;3.784;2023-06-01T01:32:12;13.70;99.90
45409;DHT22;31162;51.076;3.784;2023-06-01T01:34:40;13.70;99.90
45409;DHT22;31162;51.076;3.784;2023-06-01T01:37:09;13.70;99.90
45409;DHT22;31162;51.076;3.784;2023-06-01T01:39:34;13.70;99.90
45409;DHT22;31162;51.076;3.784;2023-06-01T01:42:00;13.80;99.90
45409;DHT22;31162;51.076;3.784;2023-06-01T01:44:26;13.80;99.90
45409;DHT22;31162;51.076;3.784;2023-06-01T01:49:59;13.70;99.90
45409;DHT22;31162;51.076;3.784;2023-06-01T01:52:38;13.60;99.90
45409;DHT22;31162;51.076;3.784;2023-06-01T01:55:07;13.50;99.90
45409;DHT22;31162;51.076;3.784;2023-06-01T01:57:34;13.60;99.90
45409;DHT22;31162;51.076;3.784;2023-06-01T02:00:02;13.60;99.90
45409;DHT22;31162;51.076;3.784;2023-06-01T02:02:28;13.50;99.90
45409;DHT22;31162;51.076;3.784;2023-06-01T02:04:54;13.50;99.90
45409;DHT22;31162;51.076;3.784;2023-06-01T02:07:20;13.40;99.90
45409;DHT22;31162;51.076;3.784;2023-06-01T02:09:46;13.40;99.90
45409;DHT22;31162;51.076;3.784;2023-06-01T02:12:14;13.40;99.90
45409;DHT22;31162;51.076;3.784;2023-06-01T02:14:40;13.30;99.90
45409;DHT22;31162;51.076;3.784;2023-06-01T02:17:06;13.30;99.90
45409;DHT22;31162;51.076;3.784;2023-06-01T02:19:32;13.30;99.90
45409;DHT22;31162;51.076;3.784;2023-06-01T02:21:58;13.30;99.90
45409;DHT22;31162;51.076;3.784;2023-06-01T02:24:24;13.30;99.90
45409;DHT22;31162;51.076;3.784;2023-06-01T02:26:49;13.40;99.90
45409;DHT22;31162;51.076;3.784;2023-06-01T02:29:20;13.40;99.90
45409;DHT22;31162;51.076;3.784;2023-06-01T02:31:48;13.30;99.90
45409;DHT22;31162;51.076;3.784;2023-06-01T02:34:15;13.30;99.90
45409;DHT22;31162;51.076;3.784;2023-06-01T02:36:40;13.30;99.90
45409;DHT22;31162;51.076;3.784;2023-06-01T02:39:06;13.30;99.90
45409;DHT22;31162;51.076;3.784;2023-06-01T02:41:32;13.40;99.90
45409;DHT22;31162;51.076;3.784;2023-06-01T02:43:57;13.40;99.90
45409;DHT22;31162;51.076;3.784;2023-06-01T02:46:23;13.40;99.90
45409;DHT22;31162;51.076;3.784;2023-06-01T02:48:48;13.40;99.90
45409;DHT22;31162;51.076;3.784;2023-06-01T02:51:14;13.40;99.90
45409;DHT22;31162;51.076;3.784;2023-06-01T02:53:40;13.40;99.90
45409;DHT22;31162;51.076;3.784;2023-06-01T02:56:06;13.50;99.90
45409;DHT22;31162;51.076;3.784;2023-06-01T02:58:32;13.40;99.90
45409;DHT22;31162;51.076;3.784;2023-06-01T03:00:58;13.50;99.90
45409;DHT22;31162;51.076;3.784;2023-06-01T03:03:24;13.50;99.90
45409;DHT22;31162;51.076;3.784;2023-06-01T03:05:51;13.50;99.90
45409;DHT22;31162;51.076;3.784;2023-06-01T03:08:16;13.50;99.90
45409;DHT22;31162;51.076;3.784;2023-06-01T03:10:43;13.60;99.90
45409;DHT22;31162;51.076;3.784;2023-06-01T03:13:08;13.60;99.90
45409;DHT22;31162;51.076;3.784;2023-06-01T03:15:37;13.50;99.90
45409;DHT22;31162;51.076;3.784;2023-06-01T03:18:03;13.50;99.90
45409;DHT22;31162;51.076;3.784;2023-06-01T03:20:29;13.50;99.90
45409;DHT22;31162;51.076;3.784;2023-06-01T03:22:55;13.50;99.90
45409;DHT22;31162;51.076;3.784;2023-06-01T03:25:21;13.40;99.90
45409;DHT22;31162;51.076;3.784;2023-06-01T03:27:46;13.30;99.90
45409;DHT22;31162;51.076;3.784;2023-06-01T03:30:12;13.40;99.90
45409;DHT22;31162;51.076;3.784;2023-06-01T03:32:41;13.30;99.90
45409;DHT22;31162;51.076;3.784;2023-06-01T03:35:08;13.40;99.90
45409;DHT22;31162;51.076;3.784;2023-06-01T03:37:34;13.50;99.90
45409;DHT22;31162;51.076;3.784;2023-06-01T03:40:01;13.40;99.90
45409;DHT22;31162;51.076;3.784;2023-06-01T03:42:36;13.40;99.90
45409;DHT22;31162;51.076;3.784;2023-06-01T03:45:03;13.40;99.90
45409;DHT22;31162;51.076;3.784;2023-06-01T03:47:30;13.50;99.90
45409;DHT22;31162;51.076;3.784;2023-06-01T03:49:58;13.50;99.90
45409;DHT22;31162;51.076;3.784;2023-06-01T03:52:25;13.50;99.90
45409;DHT22;31162;51.076;3.784;2023-06-01T03:54:51;13.60;99.90
45409;DHT22;31162;51.076;3.784;2023-06-01T03:57:17;13.60;99.90
45409;DHT22;31162;51.076;3.784;2023-06-01T03:59:42;13.70;99.90
45409;DHT22;31162;51.076;3.784;2023-06-01T04:02:08;13.70;99.90
45409;DHT22;31162;51.076;3.784;2023-06-01T04:04:35;13.60;99.90
45409;DHT22;31162;51.076;3.784;2023-06-01T04:07:01;13.60;99.90
45409;DHT22;31162;51.076;3.784;2023-06-01T04:09:28;13.50;99.90
45409;DHT22;31162;51.076;3.784;2023-06-01T04:11:54;13.50;99.90
45409;DHT22;31162;51.076;3.784;2023-06-01T04:14:20;13.50;99.90
45409;DHT22;31162;51.076;3.784;2023-06-01T04:16:46;13.60;99.90
45409;DHT22;31162;51.076;3.784;2023-06-01T04:19:14;13.70;99.90
45409;DHT22;31162;51.076;3.784;2023-06-01T04:21:40;13.80;99.90
45409;DHT22;31162;51.076;3.784;2023-06-01T04:24:05;13.80;99.90
45409;DHT22;31162;51.076;3.784;2023-06-01T04:26:31;13.80;99.90
45409;DHT22;31162;51.076;3.784;2023-06-01T04:29:00;13.80;99.90
45409;DHT22;31162;51.076;3.784;2023-06-01T04:31:28;13.90;99.90
45409;DHT22;31162;51.076;3.784;2023-06-01T04:33:54;13.80;99.90
45409;DHT22;31162;51.076;3.784;2023-06-01T04:36:24;13.70;99.90
45409;DHT22;31162;51.076;3.784;2023-06-01T04:38:51;13.70;99.90
45409;DHT22;31162;51.076;3.784;2023-06-01T04:41:19;13.70;99.90
45409;DHT22;31162;51.076;3.784;2023-06-01T04:43:47;13.90;99.90
45409;DHT22;31162;51.076;3.784;2023-06-01T04:46:18;13.80;99.90
45409;DHT22;31162;51.076;3.784;2023-06-01T04:48:47;14.10;99.90
45409;DHT22;31162;51.076;3.784;2023-06-01T04:51:15;14.10;99.90
45409;DHT22;31162;51.076;3.784;2023-06-01T04:53:45;14.10;99.90
45409;DHT22;31162;51.076;3.784;2023-06-01T04:56:16;14.00;99.90
45409;DHT22;31162;51.076;3.784;2023-06-01T04:58:41;14.00;99.90
45409;DHT22;31162;51.076;3.784;2023-06-01T05:01:07;14.10;99.90
45409;DHT22;31162;51.076;3.784;2023-06-01T05:03:33;14.10;99.90
45409;DHT22;31162;51.076;3.784;2023-06-01T05:05:58;14.20;99.90
45409;DHT22;31162;51.076;3.784;2023-06-01T05:08:24;14.30;99.90
45409;DHT22;31162;51.076;3.784;2023-06-01T05:10:49;14.40;99.90
45409;DHT22;31162;51.076;3.784;2023-06-01T05:13:15;14.50;99.90
45409;DHT22;31162;51.076;3.784;2023-06-01T05:15:41;14.40;99.90
45409;DHT22;31162;51.076;3.784;2023-06-01T05:18:06;14.40;99.90
45409;DHT22;31162;51.076;3.784;2023-06-01T05:20:32;14.50;99.90
45409;DHT22;31162;51.076;3.784;2023-06-01T05:22:57;14.60;99.90
45409;DHT22;31162;51.076;3.784;2023-06-01T05:25:23;14.70;99.90
45409;DHT22;31162;51.076;3.784;2023-06-01T05:27:49;14.70;99.90
45409;DHT22;31162;51.076;3.784;2023-06-01T05:30:15;14.90;99.90
45409;DHT22;31162;51.076;3.784;2023-06-01T05:32:40;15.10;99.90
45409;DHT22;31162;51.076;3.784;2023-06-01T05:35:06;15.10;99.90
45409;DHT22;31162;51.076;3.784;2023-06-01T05:37:32;15.20;99.90
45409;DHT22;31162;51.076;3.784;2023-06-01T05:39:58;15.10;99.90
45409;DHT22;31162;51.076;3.784;2023-06-01T05:42:23;15.00;99.90
45409;DHT22;31162;51.076;3.784;2023-06-01T05:44:49;15.30;99.90
45409;DHT22;31162;51.076;3.784;2023-06-01T05:47:15;15.40;99.90
45409;DHT22;31162;51.076;3.784;2023-06-01T05:49:40;15.30;99.90
45409;DHT22;31162;51.076;3.784;2023-06-01T05:52:06;15.40;99.90
45409;DHT22;31162;51.076;3.784;2023-06-01T05:54:32;15.50;99.90
45409;DHT22;31162;51.076;3.784;2023-06-01T05:56:57;15.70;99.90
45409;DHT22;31162;51.076;3.784;2023-06-01T05:59:25;15.80;99.90
45409;DHT22;31162;51.076;3.784;2023-06-01T06:01:51;15.60;99.90
45409;DHT22;31162;51.076;3.784;2023-06-01T06:04:17;15.80;99.90
45409;DHT22;31162;51.076;3.784;2023-06-01T06:06:43;15.90;99.90
45409;DHT22;31162;51.076;3.784;2023-06-01T06:09:08;16.10;99.90
45409;DHT22;31162;51.076;3.784;2023-06-01T06:11:35;16.50;99.90
45409;DHT22;31162;51.076;3.784;2023-06-01T06:14:01;16.50;99.90
45409;DHT22;31162;51.076;3.784;2023-06-01T06:16:27;16.80;99.90
45409;DHT22;31162;51.076;3.784;2023-06-01T06:18:52;16.90;99.90
45409;DHT22;31162;51.076;3.784;2023-06-01T06:21:18;17.20;99.90
45409;DHT22;31162;51.076;3.784;2023-06-01T06:23:46;17.80;99.90
45409;DHT22;31162;51.076;3.784;2023-06-01T06:26:13;17.90;99.90
45409;DHT22;31162;51.076;3.784;2023-06-01T06:28:42;18.70;99.90
45409;DHT22;31162;51.076;3.784;2023-06-01T06:31:07;19.50;99.90
45409;DHT22;31162;51.076;3.784;2023-06-01T06:33:33;19.50;99.90
45409;DHT22;31162;51.076;3.784;2023-06-01T06:35:59;20.60;99.90
45409;DHT22;31162;51.076;3.784;2023-06-01T06:38:25;23.70;99.90
45409;DHT22;31162;51.076;3.784;2023-06-01T06:40:51;25.70;99.90
45409;DHT22;31162;51.076;3.784;2023-06-01T06:43:17;26.50;97.90
45409;DHT22;31162;51.076;3.784;2023-06-01T06:45:43;27.40;95.80
45409;DHT22;31162;51.076;3.784;2023-06-01T06:48:08;28.20;94.10
45409;DHT22;31162;51.076;3.784;2023-06-01T06:50:34;28.20;93.20
45409;DHT22;31162;51.076;3.784;2023-06-01T06:53:00;28.60;92.20
45409;DHT22;31162;51.076;3.784;2023-06-01T06:55:27;29.50;91.00
45409;DHT22;31162;51.076;3.784;2023-06-01T06:57:52;30.40;89.70
45409;DHT22;31162;51.076;3.784;2023-06-01T07:00:19;30.90;86.90
45409;DHT22;31162;51.076;3.784;2023-06-01T07:02:45;31.10;86.00
45409;DHT22;31162;51.076;3.784;2023-06-01T07:05:12;31.50;84.30
45409;DHT22;31162;51.076;3.784;2023-06-01T07:07:40;32.30;83.40
45409;DHT22;31162;51.076;3.784;2023-06-01T07:10:06;32.60;81.70
45409;DHT22;31162;51.076;3.784;2023-06-01T07:12:32;32.80;80.60
45409;DHT22;31162;51.076;3.784;2023-06-01T07:14:57;33.00;79.00
45409;DHT22;31162;51.076;3.784;2023-06-01T07:17:23;33.50;78.40
45409;DHT22;31162;51.076;3.784;2023-06-01T07:19:48;34.30;77.50
45409;DHT22;31162;51.076;3.784;2023-06-01T07:22:14;34.60;75.40
45409;DHT22;31162;51.076;3.784;2023-06-01T07:24:40;33.80;75.50
45409;DHT22;31162;51.076;3.784;2023-06-01T07:27:06;33.50;74.40
45409;DHT22;31162;51.076;3.784;2023-06-01T07:29:33;32.90;75.60
45409;DHT22;31162;51.076;3.784;2023-06-01T07:31:59;32.70;74.90
45409;DHT22;31162;51.076;3.784;2023-06-01T07:34:25;33.10;74.20
45409;DHT22;31162;51.076;3.784;2023-06-01T07:36:50;33.80;74.10
45409;DHT22;31162;51.076;3.784;2023-06-01T07:39:18;33.90;73.40
45409;DHT22;31162;51.076;3.784;2023-06-01T07:41:45;34.30;73.30
45409;DHT22;31162;51.076;3.784;2023-06-01T07:44:11;35.30;72.80
45409;DHT22;31162;51.076;3.784;2023-06-01T07:46:37;35.60;71.30
45409;DHT22;31162;51.076;3.784;2023-06-01T07:49:03;35.30;70.40
45409;DHT22;31162;51.076;3.784;2023-06-01T07:51:29;34.30;71.50
45409;DHT22;31162;51.076;3.784;2023-06-01T07:53:56;34.40;70.50
45409;DHT22;31162;51.076;3.784;2023-06-01T07:56:24;33.50;72.10
45409;DHT22;31162;51.076;3.784;2023-06-01T07:58:52;34.70;71.70
45409;DHT22;31162;51.076;3.784;2023-06-01T08:01:19;34.90;70.60
45409;DHT22;31162;51.076;3.784;2023-06-01T08:03:44;35.50;69.60
45409;DHT22;31162;51.076;3.784;2023-06-01T08:06:12;34.70;70.20
45409;DHT22;31162;51.076;3.784;2023-06-01T08:08:38;35.00;69.40
45409;DHT22;31162;51.076;3.784;2023-06-01T08:11:04;34.90;69.90
45409;DHT22;31162;51.076;3.784;2023-06-01T08:13:30;34.80;70.20
45409;DHT22;31162;51.076;3.784;2023-06-01T08:15:56;34.40;70.10
45409;DHT22;31162;51.076;3.784;2023-06-01T08:18:22;35.00;69.50
45409;DHT22;31162;51.076;3.784;2023-06-01T08:20:48;35.50;69.30
45409;DHT22;31162;51.076;3.784;2023-06-01T08:23:14;36.10;68.40
45409;DHT22;31162;51.076;3.784;2023-06-01T08:25:43;36.40;67.30
45409;DHT22;31162;51.076;3.784;2023-06-01T08:28:08;36.40;67.40
45409;DHT22;31162;51.076;3.784;2023-06-01T08:30:34;36.80;67.30
45409;DHT22;31162;51.076;3.784;2023-06-01T08:33:00;37.20;66.90
45409;DHT22;31162;51.076;3.784;2023-06-01T08:35:28;36.60;66.30
45409;DHT22;31162;51.076;3.784;2023-06-01T08:37:54;37.00;67.10
45409;DHT22;31162;51.076;3.784;2023-06-01T08:40:19;36.90;66.60
45409;DHT22;31162;51.076;3.784;2023-06-01T08:42:48;36.50;66.50
45409;DHT22;31162;51.076;3.784;2023-06-01T08:45:17;36.30;66.70
45409;DHT22;31162;51.076;3.784;2023-06-01T08:47:45;35.90;67.00
45409;DHT22;31162;51.076;3.784;2023-06-01T08:50:12;36.00;66.40
45409;DHT22;31162;51.076;3.784;2023-06-01T08:52:38;36.10;66.20
45409;DHT22;31162;51.076;3.784;2023-06-01T08:55:07;36.10;65.70
45409;DHT22;31162;51.076;3.784;2023-06-01T08:57:33;35.80;66.80
45409;DHT22;31162;51.076;3.784;2023-06-01T08:59:59;35.80;66.50
45409;DHT22;31162;51.076;3.784;2023-06-01T09:02:25;35.50;66.10
45409;DHT22;31162;51.076;3.784;2023-06-01T09:04:52;35.50;66.30
45409;DHT22;31162;51.076;3.784;2023-06-01T09:07:18;35.80;66.20
45409;DHT22;31162;51.076;3.784;2023-06-01T09:09:45;37.00;65.30
45409;DHT22;31162;51.076;3.784;2023-06-01T09:12:22;37.50;64.80
45409;DHT22;31162;51.076;3.784;2023-06-01T09:17:38;36.80;65.60
45409;DHT22;31162;51.076;3.784;2023-06-01T09:20:04;36.80;64.70
45409;DHT22;31162;51.076;3.784;2023-06-01T09:22:45;37.60;64.70
45409;DHT22;31162;51.076;3.784;2023-06-01T09:25:14;38.30;65.00
45409;DHT22;31162;51.076;3.784;2023-06-01T09:27:51;37.60;63.50
45409;DHT22;31162;51.076;3.784;2023-06-01T09:30:18;36.30;64.00
45409;DHT22;31162;51.076;3.784;2023-06-01T09:32:45;36.50;63.70
45409;DHT22;31162;51.076;3.784;2023-06-01T09:35:36;35.70;64.20
45409;DHT22;31162;51.076;3.784;2023-06-01T09:38:02;34.50;65.00
45409;DHT22;31162;51.076;3.784;2023-06-01T09:40:32;35.00;65.30
45409;DHT22;31162;51.076;3.784;2023-06-01T09:42:58;35.10;65.00
45409;DHT22;31162;51.076;3.784;2023-06-01T09:45:23;34.80;65.40
45409;DHT22;31162;51.076;3.784;2023-06-01T09:47:51;34.00;66.00
45409;DHT22;31162;51.076;3.784;2023-06-01T09:50:36;34.10;66.00
45409;DHT22;31162;51.076;3.784;2023-06-01T09:53:04;35.00;65.30
45409;DHT22;31162;51.076;3.784;2023-06-01T09:55:31;35.70;65.10
45409;DHT22;31162;51.076;3.784;2023-06-01T09:58:17;35.50;64.60
45409;DHT22;31162;51.076;3.784;2023-06-01T10:00:46;36.10;64.60
45409;DHT22;31162;51.076;3.784;2023-06-01T10:03:14;35.50;64.50
45409;DHT22;31162;51.076;3.784;2023-06-01T10:05:40;36.00;64.30
45409;DHT22;31162;51.076;3.784;2023-06-01T10:08:06;36.80;64.50
45409;DHT22;31162;51.076;3.784;2023-06-01T10:10:33;37.50;63.30
45409;DHT22;31162;51.076;3.784;2023-06-01T10:12:58;37.90;62.60
45409;DHT22;31162;51.076;3.784;2023-06-01T10:15:24;37.60;63.20
45409;DHT22;31162;51.076;3.784;2023-06-01T10:17:50;36.70;63.40
45409;DHT22;31162;51.076;3.784;2023-06-01T10:20:16;37.00;64.00
45409;DHT22;31162;51.076;3.784;2023-06-01T10:22:42;37.40;63.30
45409;DHT22;31162;51.076;3.784;2023-06-01T10:25:11;37.00;63.30
45409;DHT22;31162;51.076;3.784;2023-06-01T10:27:42;36.90;63.00
45409;DHT22;31162;51.076;3.784;2023-06-01T10:30:10;36.30;63.40
45409;DHT22;31162;51.076;3.784;2023-06-01T10:35:07;34.60;63.60
45409;DHT22;31162;51.076;3.784;2023-06-01T10:37:33;34.40;63.90
45409;DHT22;31162;51.076;3.784;2023-06-01T10:40:19;33.90;65.30
45409;DHT22;31162;51.076;3.784;2023-06-01T10:42:49;35.00;65.00
45409;DHT22;31162;51.076;3.784;2023-06-01T10:48:00;35.10;65.10
45409;DHT22;31162;51.076;3.784;2023-06-01T10:50:26;35.30;64.90
45409;DHT22;31162;51.076;3.784;2023-06-01T10:52:53;35.40;65.60
45409;DHT22;31162;51.076;3.784;2023-06-01T10:55:21;34.90;65.40
45409;DHT22;31162;51.076;3.784;2023-06-01T10:57:47;34.70;65.60
45409;DHT22;31162;51.076;3.784;2023-06-01T11:00:23;34.60;65.60
45409;DHT22;31162;51.076;3.784;2023-06-01T11:03:04;34.60;64.60
45409;DHT22;31162;51.076;3.784;2023-06-01T11:05:42;34.30;65.30
45409;DHT22;31162;51.076;3.784;2023-06-01T11:13:28;33.20;65.30
45409;DHT22;31162;51.076;3.784;2023-06-01T11:18:47;33.40;65.70
45409;DHT22;31162;51.076;3.784;2023-06-01T11:21:57;33.90;65.00
45409;DHT22;31162;51.076;3.784;2023-06-01T11:24:17;34.10;64.70
45409;DHT22;31162;51.076;3.784;2023-06-01T11:26:48;33.80;65.40
45409;DHT22;31162;51.076;3.784;2023-06-01T11:29:19;33.60;64.50
45409;DHT22;31162;51.076;3.784;2023-06-01T11:31:53;33.50;64.70
45409;DHT22;31162;51.076;3.784;2023-06-01T11:34:25;33.80;64.70
45409;DHT22;31162;51.076;3.784;2023-06-01T11:36:52;33.90;65.10
45409;DHT22;31162;51.076;3.784;2023-06-01T11:39:25;34.10;64.50
45409;DHT22;31162;51.076;3.784;2023-06-01T11:42:13;33.70;65.30
45409;DHT22;31162;51.076;3.784;2023-06-01T11:44:44;34.00;64.60
45409;DHT22;31162;51.076;3.784;2023-06-01T11:47:10;33.40;65.30
45409;DHT22;31162;51.076;3.784;2023-06-01T11:49:46;32.70;66.30
45409;DHT22;31162;51.076;3.784;2023-06-01T11:52:14;32.20;66.10
45409;DHT22;31162;51.076;3.784;2023-06-01T11:54:40;32.00;66.40
45409;DHT22;31162;51.076;3.784;2023-06-01T11:57:06;32.00;66.50
45409;DHT22;31162;51.076;3.784;2023-06-01T11:59:44;31.60;67.70
45409;DHT22;31162;51.076;3.784;2023-06-01T12:02:21;31.20;68.60
45409;DHT22;31162;51.076;3.784;2023-06-01T12:04:58;31.00;68.80
45409;DHT22;31162;51.076;3.784;2023-06-01T12:07:24;30.30;69.60
45409;DHT22;31162;51.076;3.784;2023-06-01T12:09:52;29.80;70.60
45409;DHT22;31162;51.076;3.784;2023-06-01T12:12:23;29.20;72.10
45409;DHT22;31162;51.076;3.784;2023-06-01T12:14:50;28.90;73.30
45409;DHT22;31162;51.076;3.784;2023-06-01T12:17:17;28.50;73.50
45409;DHT22;31162;51.076;3.784;2023-06-01T12:19:47;28.40;74.10
45409;DHT22;31162;51.076;3.784;2023-06-01T12:22:13;27.30;73.90
45409;DHT22;31162;51.076;3.784;2023-06-01T12:24:40;26.40;76.60
45409;DHT22;31162;51.076;3.784;2023-06-01T12:27:17;26.00;77.90
45409;DHT22;31162;51.076;3.784;2023-06-01T12:29:46;25.80;78.40
45409;DHT22;31162;51.076;3.784;2023-06-01T12:32:14;25.50;78.80
45409;DHT22;31162;51.076;3.784;2023-06-01T12:34:43;25.50;79.20
45409;DHT22;31162;51.076;3.784;2023-06-01T12:37:14;25.10;80.30
45409;DHT22;31162;51.076;3.784;2023-06-01T12:39:39;25.20;78.70
45409;DHT22;31162;51.076;3.784;2023-06-01T12:42:07;25.00;80.90
45409;DHT22;31162;51.076;3.784;2023-06-01T12:44:33;24.90;81.10
45409;DHT22;31162;51.076;3.784;2023-06-01T12:47:00;25.00;79.60
45409;DHT22;31162;51.076;3.784;2023-06-01T12:49:29;24.90;80.10
45409;DHT22;31162;51.076;3.784;2023-06-01T12:51:58;24.80;79.90
45409;DHT22;31162;51.076;3.784;2023-06-01T12:54:26;24.90;81.70
45409;DHT22;31162;51.076;3.784;2023-06-01T12:56:54;24.90;80.80
45409;DHT22;31162;51.076;3.784;2023-06-01T12:59:20;24.70;80.60
45409;DHT22;31162;51.076;3.784;2023-06-01T13:01:46;24.70;80.40
45409;DHT22;31162;51.076;3.784;2023-06-01T13:04:14;24.60;79.50
45409;DHT22;31162;51.076;3.784;2023-06-01T13:06:40;24.60;79.50
45409;DHT22;31162;51.076;3.784;2023-06-01T13:09:06;24.70;80.50
45409;DHT22;31162;51.076;3.784;2023-06-01T13:11:33;24.70;82.00
45409;DHT22;31162;51.076;3.784;2023-06-01T13:13:58;24.80;80.80
45409;DHT22;31162;51.076;3.784;2023-06-01T13:16:24;24.70;79.80
45409;DHT22;31162;51.076;3.784;2023-06-01T13:18:57;24.50;81.10
45409;DHT22;31162;51.076;3.784;2023-06-01T13:21:23;24.50;80.70
45409;DHT22;31162;51.076;3.784;2023-06-01T13:23:49;24.60;81.20
45409;DHT22;31162;51.076;3.784;2023-06-01T13:26:14;24.30;81.80
45409;DHT22;31162;51.076;3.784;2023-06-01T13:28:40;24.40;81.90
45409;DHT22;31162;51.076;3.784;2023-06-01T13:31:06;24.40;81.80
45409;DHT22;31162;51.076;3.784;2023-06-01T13:33:31;24.40;81.10
45409;DHT22;31162;51.076;3.784;2023-06-01T13:35:57;24.30;81.20
45409;DHT22;31162;51.076;3.784;2023-06-01T13:38:23;24.30;82.70
45409;DHT22;31162;51.076;3.784;2023-06-01T13:40:49;24.30;82.70
45409;DHT22;31162;51.076;3.784;2023-06-01T13:43:16;24.30;84.80
45409;DHT22;31162;51.076;3.784;2023-06-01T13:45:41;24.40;83.70
45409;DHT22;31162;51.076;3.784;2023-06-01T13:48:07;24.20;83.80
45409;DHT22;31162;51.076;3.784;2023-06-01T13:50:32;24.10;84.60
45409;DHT22;31162;51.076;3.784;2023-06-01T13:52:58;24.10;85.00
45409;DHT22;31162;51.076;3.784;2023-06-01T13:55:24;23.70;84.60
45409;DHT22;31162;51.076;3.784;2023-06-01T13:57:50;23.60;84.70
45409;DHT22;31162;51.076;3.784;2023-06-01T14:00:16;23.60;86.80
45409;DHT22;31162;51.076;3.784;2023-06-01T14:02:42;23.80;86.20
45409;DHT22;31162;51.076;3.784;2023-06-01T14:05:08;24.00;86.20
45409;DHT22;31162;51.076;3.784;2023-06-01T14:07:36;24.20;85.20
45409;DHT22;31162;51.076;3.784;2023-06-01T14:10:02;24.20;84.50
45409;DHT22;31162;51.076;3.784;2023-06-01T14:12:27;24.20;85.50
45409;DHT22;31162;51.076;3.784;2023-06-01T14:14:53;24.10;85.00
45409;DHT22;31162;51.076;3.784;2023-06-01T14:17:19;24.00;85.90
45409;DHT22;31162;51.076;3.784;2023-06-01T14:19:45;23.50;86.50
45409;DHT22;31162;51.076;3.784;2023-06-01T14:22:11;23.50;88.00
45409;DHT22;31162;51.076;3.784;2023-06-01T14:24:36;23.40;87.80
45409;DHT22;31162;51.076;3.784;2023-06-01T14:27:02;23.30;88.40
45409;DHT22;31162;51.076;3.784;2023-06-01T14:29:28;23.20;89.60
45409;DHT22;31162;51.076;3.784;2023-06-01T14:31:53;23.30;88.90
45409;DHT22;31162;51.076;3.784;2023-06-01T14:34:19;23.20;88.50
45409;DHT22;31162;51.076;3.784;2023-06-01T14:36:45;23.10;88.80
45409;DHT22;31162;51.076;3.784;2023-06-01T14:39:11;23.10;89.40
45409;DHT22;31162;51.076;3.784;2023-06-01T14:41:36;23.10;89.60
45409;DHT22;31162;51.076;3.784;2023-06-01T14:44:03;22.80;89.60
45409;DHT22;31162;51.076;3.784;2023-06-01T14:46:29;22.90;89.20
45409;DHT22;31162;51.076;3.784;2023-06-01T14:48:54;22.80;89.90
45409;DHT22;31162;51.076;3.784;2023-06-01T14:51:20;22.80;90.10
45409;DHT22;31162;51.076;3.784;2023-06-01T14:53:46;22.90;89.50
45409;DHT22;31162;51.076;3.784;2023-06-01T14:56:11;22.90;90.00
45409;DHT22;31162;51.076;3.784;2023-06-01T14:58:37;22.80;90.10
45409;DHT22;31162;51.076;3.784;2023-06-01T15:01:03;22.80;90.10
45409;DHT22;31162;51.076;3.784;2023-06-01T15:03:28;22.60;89.90
45409;DHT22;31162;51.076;3.784;2023-06-01T15:05:54;22.30;90.90
45409;DHT22;31162;51.076;3.784;2023-06-01T15:08:20;22.20;90.80
45409;DHT22;31162;51.076;3.784;2023-06-01T15:10:46;22.00;91.00
45409;DHT22;31162;51.076;3.784;2023-06-01T15:13:12;21.90;91.00
45409;DHT22;31162;51.076;3.784;2023-06-01T15:15:39;21.90;91.30
45409;DHT22;31162;51.076;3.784;2023-06-01T15:18:06;22.00;91.50
45409;DHT22;31162;51.076;3.784;2023-06-01T15:20:31;22.30;91.50
45409;DHT22;31162;51.076;3.784;2023-06-01T15:22:57;22.30;91.10
45409;DHT22;31162;51.076;3.784;2023-06-01T15:25:23;22.20;90.90
45409;DHT22;31162;51.076;3.784;2023-06-01T15:27:48;22.10;91.10
45409;DHT22;31162;51.076;3.784;2023-06-01T15:30:14;21.80;91.30
45409;DHT22;31162;51.076;3.784;2023-06-01T15:32:40;21.70;91.30
45409;DHT22;31162;51.076;3.784;2023-06-01T15:35:06;21.50;91.30
45409;DHT22;31162;51.076;3.784;2023-06-01T15:37:34;21.50;92.10
45409;DHT22;31162;51.076;3.784;2023-06-01T15:40:00;21.40;91.90
45409;DHT22;31162;51.076;3.784;2023-06-01T15:42:26;21.50;92.20
45409;DHT22;31162;51.076;3.784;2023-06-01T15:44:52;21.40;92.10
45409;DHT22;31162;51.076;3.784;2023-06-01T15:47:17;21.30;92.50
45409;DHT22;31162;51.076;3.784;2023-06-01T15:49:43;21.20;92.50
45409;DHT22;31162;51.076;3.784;2023-06-01T15:52:09;21.10;92.70
45409;DHT22;31162;51.076;3.784;2023-06-01T15:54:35;21.20;92.90
45409;DHT22;31162;51.076;3.784;2023-06-01T15:57:02;21.20;92.80
45409;DHT22;31162;51.076;3.784;2023-06-01T15:59:29;21.20;93.30